createdAt,value
2018-02-23T00:00:22.202Z,1.80
2018-02-23T00:01:22.202Z,1.94
2018-02-23T00:02:22.208Z,1.82
2018-02-23T00:03:22.210Z,1.78
2018-02-23T00:04:22.245Z,1.79
2018-02-23T00:05:22.208Z,1.82
2018-02-23T00:06:22.219Z,1.87
2018-02-23T00:07:22.210Z,1.98
2018-02-23T00:08:22.207Z,1.87
2018-02-23T00:09:22.211Z,1.94
2018-02-23T00:10:22.214Z,1.94
2018-02-23T00:11:22.212Z,2.04
2018-02-23T00:12:22.212Z,1.98
2018-02-23T00:13:22.213Z,2.02
2018-02-23T00:14:22.212Z,2.02
2018-02-23T00:15:22.213Z,2.12
2018-02-23T00:16:22.217Z,2.16
2018-02-23T00:17:22.213Z,2.13
2018-02-23T00:18:22.222Z,2.23
2018-02-23T00:19:22.218Z,2.17
2018-02-23T00:20:22.217Z,2.28
2018-02-23T00:21:22.227Z,2.23
2018-02-23T00:22:22.235Z,2.38
2018-02-23T00:23:22.222Z,2.33
2018-02-23T00:24:22.220Z,2.34
2018-02-23T00:25:22.222Z,2.28
2018-02-23T00:26:22.227Z,2.30
2018-02-23T00:27:22.224Z,2.30
2018-02-23T00:28:22.228Z,2.28
2018-02-23T00:29:22.226Z,2.26
2018-02-23T00:30:22.226Z,2.26
2018-02-23T00:31:22.231Z,2.23
2018-02-23T00:32:22.227Z,2.27
2018-02-23T00:33:22.229Z,2.33
2018-02-23T00:34:22.238Z,2.31
2018-02-23T00:35:22.230Z,2.30
2018-02-23T00:36:22.235Z,2.30
2018-02-23T00:37:22.236Z,2.27
2018-02-23T00:38:22.238Z,2.26
2018-02-23T00:39:22.248Z,2.23
2018-02-23T00:40:22.236Z,2.27
2018-02-23T00:41:22.247Z,2.15
2018-02-23T00:42:22.243Z,2.19
2018-02-23T00:43:22.247Z,2.23
2018-02-23T00:44:22.238Z,2.22
2018-02-23T00:45:22.238Z,2.20
2018-02-23T00:46:22.246Z,2.27
2018-02-23T00:47:22.246Z,2.23
2018-02-23T00:48:22.247Z,2.19
2018-02-23T00:49:22.243Z,2.26
2018-02-23T00:50:22.249Z,2.26
2018-02-23T00:51:22.245Z,2.31
2018-02-23T00:52:22.251Z,2.31
2018-02-23T00:53:22.248Z,2.16
2018-02-23T00:54:22.251Z,2.16
2018-02-23T00:55:22.261Z,2.27
2018-02-23T00:56:22.260Z,2.23
2018-02-23T00:57:22.255Z,2.30
2018-02-23T00:58:22.256Z,2.26
2018-02-23T00:59:22.250Z,2.33
2018-02-23T01:00:22.261Z,2.33
2018-02-23T01:01:22.255Z,2.46
2018-02-23T01:02:22.261Z,2.46
2018-02-23T01:03:22.259Z,2.49
2018-02-23T01:04:22.264Z,2.44
2018-02-23T01:05:22.264Z,2.31
2018-02-23T01:06:22.260Z,2.33
2018-02-23T01:07:22.262Z,2.30
2018-02-23T01:08:22.260Z,2.17
2018-02-23T01:09:22.263Z,2.26
2018-02-23T01:10:22.263Z,2.22
2018-02-23T01:11:22.275Z,2.20
2018-02-23T01:12:22.267Z,2.22
2018-02-23T01:13:22.270Z,2.23
2018-02-23T01:14:22.266Z,2.27
2018-02-23T01:15:22.273Z,2.20
2018-02-23T01:16:22.273Z,2.22
2018-02-23T01:17:22.278Z,2.12
2018-02-23T01:18:22.274Z,2.15
2018-02-23T01:19:22.276Z,2.08
2018-02-23T01:20:22.282Z,1.99
2018-02-23T01:21:22.275Z,2.04
2018-02-23T01:22:22.280Z,1.99
2018-02-23T01:23:22.288Z,2.09
2018-02-23T01:24:22.273Z,2.02
2018-02-23T01:25:22.277Z,2.09
2018-02-23T01:26:22.283Z,2.04
2018-02-23T01:27:22.283Z,2.01
2018-02-23T01:28:22.280Z,2.02
2018-02-23T01:29:22.292Z,2.06
2018-02-23T01:30:22.286Z,1.99
2018-02-23T01:31:22.288Z,2.02
2018-02-23T01:32:22.286Z,1.99
2018-02-23T01:33:22.289Z,2.02
2018-02-23T01:34:22.302Z,2.01
2018-02-23T01:35:22.293Z,2.01
2018-02-23T01:36:22.291Z,1.99
2018-02-23T01:37:22.289Z,1.98
2018-02-23T01:38:22.297Z,2.02
2018-02-23T01:39:22.296Z,2.01
2018-02-23T01:40:22.301Z,1.99
2018-02-23T01:41:22.292Z,2.02
2018-02-23T01:42:22.293Z,1.99
2018-02-23T01:43:22.301Z,2.02
2018-02-23T01:44:22.300Z,2.10
2018-02-23T01:45:22.299Z,2.01
2018-02-23T01:46:22.300Z,2.01
2018-02-23T01:47:22.297Z,2.12
2018-02-23T01:48:22.301Z,2.13
2018-02-23T01:49:22.300Z,2.09
2018-02-23T01:50:22.301Z,2.13
2018-02-23T01:51:22.310Z,2.17
2018-02-23T01:52:22.305Z,2.10
2018-02-23T01:53:22.306Z,2.13
2018-02-23T01:54:22.305Z,2.12
2018-02-23T01:55:22.309Z,2.13
2018-02-23T01:56:22.311Z,2.17
2018-02-23T01:57:22.308Z,2.13
2018-02-23T01:58:22.305Z,2.16
2018-02-23T01:59:22.310Z,2.12
2018-02-23T02:00:22.311Z,2.16
2018-02-23T02:01:22.309Z,2.08
2018-02-23T02:02:22.315Z,2.15
2018-02-23T02:03:22.316Z,2.19
2018-02-23T02:04:22.321Z,2.13
2018-02-23T02:05:22.320Z,2.15
2018-02-23T02:06:22.317Z,2.15
2018-02-23T02:07:22.314Z,2.28
2018-02-23T02:08:22.333Z,2.19
2018-02-23T02:09:22.320Z,2.22
2018-02-23T02:10:22.317Z,2.27
2018-02-23T02:11:22.321Z,2.19
2018-02-23T02:12:22.332Z,2.23
2018-02-23T02:13:22.324Z,2.28
2018-02-23T02:14:22.321Z,2.27
2018-02-23T02:15:22.325Z,2.31
2018-02-23T02:16:22.326Z,2.19
2018-02-23T02:17:22.332Z,2.19
2018-02-23T02:18:22.328Z,2.30
2018-02-23T02:19:22.333Z,2.27
2018-02-23T02:20:22.330Z,2.27
2018-02-23T02:21:22.332Z,2.27
2018-02-23T02:22:22.327Z,2.27
2018-02-23T02:23:22.337Z,2.30
2018-02-23T02:24:22.330Z,2.33
2018-02-23T02:25:22.335Z,2.31
2018-02-23T02:26:22.336Z,2.31
2018-02-23T02:27:22.335Z,2.28
2018-02-23T02:28:22.338Z,2.31
2018-02-23T02:29:22.342Z,2.26
2018-02-23T02:30:22.340Z,2.30
2018-02-23T02:31:22.336Z,2.31
2018-02-23T02:32:22.338Z,2.27
2018-02-23T02:33:22.338Z,2.27
2018-02-23T02:34:22.345Z,2.26
2018-02-23T02:35:22.345Z,2.22
2018-02-23T02:36:22.347Z,2.22
2018-02-23T02:37:22.343Z,2.17
2018-02-23T02:38:22.346Z,2.15
2018-02-23T02:39:22.351Z,2.27
2018-02-23T02:40:22.348Z,2.12
2018-02-23T02:41:22.345Z,2.26
2018-02-23T02:42:22.356Z,2.17
2018-02-23T02:43:22.352Z,2.15
2018-02-23T02:44:22.355Z,2.17
2018-02-23T02:45:22.346Z,2.16
2018-02-23T02:46:22.354Z,2.12
2018-02-23T02:47:22.359Z,2.10
2018-02-23T02:48:22.417Z,2.10
2018-02-23T02:49:22.354Z,2.15
2018-02-23T02:50:22.354Z,2.16
2018-02-23T02:51:22.359Z,2.16
2018-02-23T02:52:23.040Z,2.20
2018-02-23T02:53:22.360Z,2.33
2018-02-23T02:54:22.359Z,2.30
2018-02-23T02:55:22.361Z,2.26
2018-02-23T02:56:22.364Z,2.23
2018-02-23T02:57:22.370Z,2.23
2018-02-23T02:58:22.365Z,2.15
2018-02-23T02:59:22.365Z,2.22
2018-02-23T03:00:22.364Z,2.12
2018-02-23T03:01:22.361Z,2.15
2018-02-23T03:02:22.367Z,2.10
2018-02-23T03:03:22.367Z,2.13
2018-02-23T03:04:22.368Z,2.02
2018-02-23T03:05:22.370Z,2.04
2018-02-23T03:06:22.368Z,2.09
2018-02-23T03:07:22.368Z,2.04
2018-02-23T03:08:22.375Z,1.98
2018-02-23T03:09:22.378Z,1.97
2018-02-23T03:10:22.389Z,1.94
2018-02-23T03:11:22.374Z,2.02
2018-02-23T03:12:22.376Z,1.93
2018-02-23T03:13:22.375Z,1.90
2018-02-23T03:14:22.380Z,1.91
2018-02-23T03:15:22.379Z,1.99
2018-02-23T03:16:22.388Z,1.90
2018-02-23T03:17:22.372Z,1.91
2018-02-23T03:18:22.383Z,1.94
2018-02-23T03:19:22.376Z,1.89
2018-02-23T03:20:22.388Z,1.83
2018-02-23T03:21:22.383Z,1.83
2018-02-23T03:22:22.379Z,1.85
2018-02-23T03:23:22.388Z,1.80
2018-02-23T03:24:22.416Z,1.83
2018-02-23T03:25:22.382Z,1.79
2018-02-23T03:26:22.384Z,1.75
2018-02-23T03:27:22.392Z,1.82
2018-02-23T03:28:22.395Z,1.80
2018-02-23T03:29:22.391Z,1.83
2018-02-23T03:30:22.385Z,1.72
2018-02-23T03:31:22.391Z,1.72
2018-02-23T03:32:22.396Z,1.87
2018-02-23T03:33:22.395Z,1.79
2018-02-23T03:34:22.385Z,1.72
2018-02-23T03:35:22.406Z,1.78
2018-02-23T03:36:22.391Z,1.76
2018-02-23T03:37:22.397Z,1.71
2018-02-23T03:38:22.388Z,1.76
2018-02-23T03:39:22.392Z,1.76
2018-02-23T03:40:22.396Z,1.72
2018-02-23T03:41:22.388Z,1.61
2018-02-23T03:42:22.391Z,1.71
2018-02-23T03:43:22.399Z,1.64
2018-02-23T03:44:22.390Z,1.68
2018-02-23T03:45:22.390Z,1.61
2018-02-23T03:46:22.397Z,1.54
2018-02-23T03:47:22.403Z,1.58
2018-02-23T03:48:22.396Z,1.57
2018-02-23T03:49:22.394Z,1.52
2018-02-23T03:50:22.395Z,1.44
2018-02-23T03:51:22.395Z,1.43
2018-02-23T03:52:22.402Z,1.42
2018-02-23T03:53:22.404Z,1.37
2018-02-23T03:54:22.406Z,1.39
2018-02-23T03:55:22.402Z,1.34
2018-02-23T03:56:22.398Z,1.37
2018-02-23T03:57:22.403Z,1.34
2018-02-23T03:58:22.394Z,1.34
2018-02-23T03:59:22.400Z,1.33
2018-02-23T04:00:22.410Z,1.25
2018-02-23T04:01:22.400Z,1.33
2018-02-23T04:02:22.399Z,1.32
2018-02-23T04:03:22.399Z,1.24
2018-02-23T04:04:22.404Z,1.29
2018-02-23T04:05:22.425Z,1.32
2018-02-23T04:06:22.399Z,1.24
2018-02-23T04:07:22.399Z,1.26
2018-02-23T04:08:22.404Z,1.19
2018-02-23T04:09:22.402Z,1.34
2018-02-23T04:10:22.403Z,1.28
2018-02-23T04:11:22.400Z,1.34
2018-02-23T04:12:22.402Z,1.08
2018-02-23T04:13:22.414Z,1.22
2018-02-23T04:14:22.403Z,1.22
2018-02-23T04:15:22.407Z,1.22
2018-02-23T04:16:22.413Z,1.22
2018-02-23T04:17:22.402Z,1.25
2018-02-23T04:18:22.413Z,1.19
2018-02-23T04:19:22.403Z,1.15
2018-02-23T04:20:22.402Z,1.08
2018-02-23T04:21:22.400Z,1.10
2018-02-23T04:22:22.405Z,1.12
2018-02-23T04:23:22.407Z,1.04
2018-02-23T04:24:22.401Z,1.12
2018-02-23T04:25:22.399Z,1.10
2018-02-23T04:26:22.398Z,1.08
2018-02-23T04:27:22.406Z,1.14
2018-02-23T04:28:22.404Z,1.06
2018-02-23T04:29:22.402Z,1.10
2018-02-23T04:30:22.404Z,1.14
2018-02-23T04:31:22.404Z,1.12
2018-02-23T04:32:22.403Z,1.08
2018-02-23T04:33:22.408Z,1.08
2018-02-23T04:34:22.403Z,1.08
2018-02-23T04:35:22.402Z,1.08
2018-02-23T04:36:22.405Z,1.08
2018-02-23T04:37:22.404Z,1.08
2018-02-23T04:38:22.408Z,1.08
2018-02-23T04:39:22.415Z,1.07
2018-02-23T04:40:22.406Z,1.07
2018-02-23T04:41:22.415Z,1.15
2018-02-23T04:42:22.401Z,1.14
2018-02-23T04:43:22.407Z,1.12
2018-02-23T04:44:22.407Z,1.07
2018-02-23T04:45:22.422Z,1.15
2018-02-23T04:46:22.401Z,1.08
2018-02-23T04:47:22.413Z,1.06
2018-02-23T04:48:22.406Z,1.07
2018-02-23T04:49:22.407Z,1.08
2018-02-23T04:50:22.400Z,1.06
2018-02-23T04:51:22.403Z,1.04
2018-02-23T04:52:22.404Z,0.97
2018-02-23T04:53:22.408Z,0.89
2018-02-23T04:54:22.395Z,0.96
2018-02-23T04:55:22.402Z,0.88
2018-02-23T04:56:22.400Z,0.90
2018-02-23T04:57:22.401Z,0.86
2018-02-23T04:58:22.401Z,0.83
2018-02-23T04:59:22.412Z,0.79
2018-02-23T05:00:22.399Z,0.79
2018-02-23T05:01:22.401Z,0.82
2018-02-23T05:02:22.410Z,0.79
2018-02-23T05:03:22.402Z,0.71
2018-02-23T05:04:22.403Z,0.75
2018-02-23T05:05:22.403Z,0.75
2018-02-23T05:06:22.402Z,0.70
2018-02-23T05:07:22.416Z,0.64
2018-02-23T05:08:22.404Z,0.62
2018-02-23T05:09:22.400Z,0.62
2018-02-23T05:10:22.396Z,0.72
2018-02-23T05:11:22.396Z,0.62
2018-02-23T05:12:22.402Z,0.60
2018-02-23T05:13:22.410Z,0.62
2018-02-23T05:14:22.409Z,0.67
2018-02-23T05:15:22.401Z,0.61
2018-02-23T05:16:22.397Z,0.64
2018-02-23T05:17:22.402Z,0.60
2018-02-23T05:18:22.399Z,0.64
2018-02-23T05:19:22.395Z,0.70
2018-02-23T05:20:22.396Z,0.65
2018-02-23T05:21:22.394Z,0.65
2018-02-23T05:22:22.398Z,0.60
2018-02-23T05:23:22.393Z,0.58
2018-02-23T05:24:22.396Z,0.46
2018-02-23T05:25:22.395Z,0.52
2018-02-23T05:26:22.396Z,0.60
2018-02-23T05:27:22.395Z,0.57
2018-02-23T05:28:22.396Z,0.57
2018-02-23T05:29:22.395Z,0.53
2018-02-23T05:30:22.396Z,0.45
2018-02-23T05:31:22.392Z,0.41
2018-02-23T05:32:22.394Z,0.46
2018-02-23T05:33:22.392Z,0.41
2018-02-23T05:34:22.390Z,0.45
2018-02-23T05:35:22.395Z,0.42
2018-02-23T05:36:22.401Z,0.45
2018-02-23T05:37:23.063Z,0.45
2018-02-23T05:38:22.387Z,0.46
2018-02-23T05:39:22.390Z,0.51
2018-02-23T05:40:22.388Z,0.46
2018-02-23T05:41:22.391Z,0.48
2018-02-23T05:42:22.392Z,0.45
2018-02-23T05:43:22.385Z,0.43
2018-02-23T05:44:22.453Z,0.57
2018-02-23T05:45:22.442Z,0.52
2018-02-23T05:46:22.391Z,0.51
2018-02-23T05:47:22.382Z,0.58
2018-02-23T05:48:22.381Z,0.53
2018-02-23T05:49:22.384Z,0.62
2018-02-23T05:50:22.392Z,0.64
2018-02-23T05:51:22.433Z,0.64
2018-02-23T05:52:22.409Z,0.61
2018-02-23T05:53:22.384Z,0.61
2018-02-23T05:54:22.385Z,0.61
2018-02-23T05:55:22.387Z,0.62
2018-02-23T05:56:22.391Z,0.58
2018-02-23T05:57:22.380Z,0.61
2018-02-23T05:58:22.378Z,0.61
2018-02-23T05:59:22.378Z,0.64
2018-02-23T06:00:22.379Z,0.62
2018-02-23T06:01:22.379Z,0.64
2018-02-23T06:02:22.377Z,0.62
2018-02-23T06:03:22.380Z,0.64
2018-02-23T06:04:22.406Z,0.60
2018-02-23T06:05:22.381Z,0.57
2018-02-23T06:06:22.374Z,0.51
2018-02-23T06:07:22.376Z,0.49
2018-02-23T06:08:22.375Z,0.53
2018-02-23T06:09:22.373Z,0.49
2018-02-23T06:10:22.379Z,0.51
2018-02-23T06:11:22.375Z,0.45
2018-02-23T06:12:24.425Z,0.42
2018-02-23T06:13:22.963Z,0.48
2018-02-23T06:14:23.929Z,0.43
2018-02-23T06:15:22.374Z,0.45
2018-02-23T06:16:22.373Z,0.46
2018-02-23T06:17:22.372Z,0.46
2018-02-23T06:18:22.373Z,0.43
2018-02-23T06:19:22.370Z,0.49
2018-02-23T06:20:22.368Z,0.39
2018-02-23T06:21:22.371Z,0.45
2018-02-23T06:22:22.367Z,0.46
2018-02-23T06:23:22.371Z,0.46
2018-02-23T06:24:23.070Z,0.45
2018-02-23T06:25:22.369Z,0.43
2018-02-23T06:26:22.364Z,0.39
2018-02-23T06:27:22.364Z,0.46
2018-02-23T06:28:22.368Z,0.45
2018-02-23T06:29:22.369Z,0.42
2018-02-23T06:30:22.365Z,0.49
2018-02-23T06:31:22.361Z,0.46
2018-02-23T06:32:22.364Z,0.43
2018-02-23T06:33:22.367Z,0.41
2018-02-23T06:34:22.361Z,0.46
2018-02-23T06:35:22.362Z,0.42
2018-02-23T06:36:22.360Z,0.48
2018-02-23T06:37:22.361Z,0.49
2018-02-23T06:38:22.354Z,0.45
2018-02-23T06:39:22.359Z,0.60
2018-02-23T06:40:22.391Z,0.62
2018-02-23T06:41:22.356Z,0.70
2018-02-23T06:42:22.358Z,0.75
2018-02-23T06:43:22.355Z,0.86
2018-02-23T06:44:22.371Z,0.71
2018-02-23T06:45:22.352Z,0.76
2018-02-23T06:46:22.361Z,0.80
2018-02-23T06:47:22.355Z,0.71
2018-02-23T06:48:22.356Z,0.89
2018-02-23T06:49:22.351Z,0.90
2018-02-23T06:50:22.359Z,0.80
2018-02-23T06:51:22.363Z,1.00
2018-02-23T06:52:22.357Z,1.00
2018-02-23T06:53:22.350Z,0.97
2018-02-23T06:54:22.362Z,0.89
2018-02-23T06:55:22.349Z,0.82
2018-02-23T06:56:22.356Z,0.86
2018-02-23T06:57:22.353Z,0.86
2018-02-23T06:58:22.348Z,0.97
2018-02-23T06:59:22.347Z,1.00
2018-02-23T07:00:22.390Z,0.97
2018-02-23T07:01:22.356Z,0.97
2018-02-23T07:02:22.353Z,0.83
2018-02-23T07:03:22.349Z,0.76
2018-02-23T07:04:22.344Z,0.78
2018-02-23T07:05:22.347Z,0.71
2018-02-23T07:06:22.344Z,0.88
2018-02-23T07:07:22.352Z,0.72
2018-02-23T07:08:22.345Z,0.71
2018-02-23T07:09:22.344Z,0.70
2018-02-23T07:10:22.342Z,0.76
2018-02-23T07:11:22.348Z,0.88
2018-02-23T07:12:22.341Z,0.75
2018-02-23T07:13:22.340Z,0.78
2018-02-23T07:14:22.341Z,0.76
2018-02-23T07:15:22.342Z,0.65
2018-02-23T07:16:22.343Z,0.72
2018-02-23T07:17:22.342Z,0.71
2018-02-23T07:18:22.342Z,0.72
2018-02-23T07:19:22.343Z,0.76
2018-02-23T07:20:22.345Z,0.85
2018-02-23T07:21:22.343Z,0.86
2018-02-23T07:22:22.344Z,0.97
2018-02-23T07:23:22.339Z,0.83
2018-02-23T07:24:22.335Z,0.89
2018-02-23T07:25:22.338Z,0.98
2018-02-23T07:26:22.336Z,0.86
2018-02-23T07:27:22.341Z,1.01
2018-02-23T07:28:22.382Z,0.97
2018-02-23T07:29:22.337Z,1.08
2018-02-23T07:30:22.339Z,1.00
2018-02-23T07:31:22.339Z,1.12
2018-02-23T07:32:22.339Z,0.97
2018-02-23T07:33:22.339Z,1.04
2018-02-23T07:34:22.334Z,1.07
2018-02-23T07:35:22.334Z,1.04
2018-02-23T07:36:22.335Z,1.03
2018-02-23T07:37:22.334Z,1.08
2018-02-23T07:38:22.333Z,1.10
2018-02-23T07:39:22.332Z,1.04
2018-02-23T07:40:22.339Z,1.21
2018-02-23T07:41:22.346Z,1.25
2018-02-23T07:42:22.337Z,1.24
2018-02-23T07:43:22.334Z,1.19
2018-02-23T07:44:22.337Z,1.22
2018-02-23T07:45:22.337Z,1.26
2018-02-23T07:46:22.334Z,1.19
2018-02-23T07:47:22.332Z,1.19
2018-02-23T07:48:22.337Z,1.26
2018-02-23T07:49:22.335Z,1.33
2018-02-23T07:50:22.371Z,1.36
2018-02-23T07:51:22.331Z,1.40
2018-02-23T07:52:22.335Z,1.47
2018-02-23T07:53:22.334Z,1.43
2018-02-23T07:54:22.330Z,1.44
2018-02-23T07:55:22.337Z,1.43
2018-02-23T07:56:22.334Z,1.55
2018-02-23T07:57:22.333Z,1.51
2018-02-23T07:58:22.333Z,1.68
2018-02-23T07:59:22.345Z,1.61
2018-02-23T08:00:22.339Z,1.71
2018-02-23T08:01:22.334Z,1.99
2018-02-23T08:02:22.339Z,2.61
2018-02-23T08:03:22.346Z,3.43
2018-02-23T08:04:22.332Z,4.44
2018-02-23T08:05:22.334Z,5.02
2018-02-23T08:06:22.334Z,5.43
2018-02-23T08:07:22.339Z,5.52
2018-02-23T08:08:22.335Z,5.92
2018-02-23T08:09:22.333Z,5.86
2018-02-23T08:10:22.340Z,5.81
2018-02-23T08:11:22.339Z,6.10
2018-02-23T08:12:22.346Z,5.92
2018-02-23T08:13:22.348Z,5.83
2018-02-23T08:14:22.380Z,5.68
2018-02-23T08:15:22.353Z,5.56
2018-02-23T08:16:22.357Z,6.01
2018-02-23T08:17:22.360Z,5.55
2018-02-23T08:18:22.370Z,5.83
2018-02-23T08:19:22.370Z,6.22
2018-02-23T08:20:22.377Z,6.13
2018-02-23T08:21:22.380Z,5.78
2018-02-23T08:22:22.385Z,5.59
2018-02-23T08:23:22.391Z,5.95
2018-02-23T08:24:22.399Z,6.41
2018-02-23T08:25:22.399Z,5.92
2018-02-23T08:26:22.407Z,5.53
2018-02-23T08:27:22.416Z,5.04
2018-02-23T08:28:22.415Z,4.32
2018-02-23T08:29:22.425Z,3.97
2018-02-23T08:30:22.435Z,3.62
2018-02-23T08:31:22.434Z,3.53
2018-02-23T08:32:22.442Z,3.46
2018-02-23T08:33:22.443Z,3.30
2018-02-23T08:34:22.443Z,2.79
2018-02-23T08:35:22.455Z,2.76
2018-02-23T08:36:22.455Z,2.76
2018-02-23T08:37:22.464Z,2.70
2018-02-23T08:38:22.463Z,2.61
2018-02-23T08:39:22.471Z,2.55
2018-02-23T08:40:22.474Z,2.61
2018-02-23T08:41:22.478Z,2.56
2018-02-23T08:42:22.482Z,2.59
2018-02-23T08:43:22.486Z,2.69
2018-02-23T08:44:22.551Z,2.77
2018-02-23T08:45:22.491Z,2.71
2018-02-23T08:46:22.490Z,2.66
2018-02-23T08:47:22.497Z,2.58
2018-02-23T08:48:22.500Z,2.64
2018-02-23T08:49:22.503Z,2.61
2018-02-23T08:50:22.501Z,2.71
2018-02-23T08:51:22.503Z,2.81
2018-02-23T08:52:22.506Z,2.84
2018-02-23T08:53:22.511Z,2.81
2018-02-23T08:54:22.506Z,2.81
2018-02-23T08:55:22.511Z,2.66
2018-02-23T08:56:22.518Z,2.58
2018-02-23T08:57:22.520Z,2.61
2018-02-23T08:58:22.520Z,2.67
2018-02-23T08:59:22.523Z,2.49
2018-02-23T09:00:22.521Z,2.56
2018-02-23T09:01:22.560Z,2.49
2018-02-23T09:02:22.526Z,2.51
2018-02-23T09:03:22.528Z,2.46
2018-02-23T09:04:22.528Z,2.46
2018-02-23T09:05:22.533Z,2.56
2018-02-23T09:06:22.535Z,2.64
2018-02-23T09:07:22.538Z,2.74
2018-02-23T09:08:22.537Z,3.31
2018-02-23T09:09:22.538Z,3.00
2018-02-23T09:10:22.542Z,2.87
2018-02-23T09:11:22.545Z,3.57
2018-02-23T09:12:22.537Z,3.40
2018-02-23T09:13:22.540Z,3.52
2018-02-23T09:14:22.542Z,3.44
2018-02-23T09:15:22.545Z,3.46
2018-02-23T09:16:22.555Z,3.72
2018-02-23T09:17:22.548Z,3.64
2018-02-23T09:18:23.103Z,3.58
2018-02-23T09:19:22.567Z,3.44
2018-02-23T09:20:22.564Z,3.46
2018-02-23T09:21:22.566Z,3.36
2018-02-23T09:22:22.567Z,4.08
2018-02-23T09:23:22.567Z,3.53
2018-02-23T09:24:22.566Z,3.57
2018-02-23T09:25:22.571Z,3.28
2018-02-23T09:26:22.570Z,3.23
2018-02-23T09:27:22.577Z,3.40
2018-02-23T09:28:22.576Z,3.34
2018-02-23T09:29:22.580Z,3.40
2018-02-23T09:30:22.578Z,3.39
2018-02-23T09:31:22.583Z,3.21
2018-02-23T09:32:22.580Z,2.91
2018-02-23T09:33:22.598Z,3.06
2018-02-23T09:34:22.588Z,3.21
2018-02-23T09:35:22.602Z,3.09
2018-02-23T09:36:22.592Z,3.23
2018-02-23T09:37:22.594Z,3.30
2018-02-23T09:38:22.604Z,3.28
2018-02-23T09:39:22.600Z,3.43
2018-02-23T09:40:22.609Z,3.89
2018-02-23T09:41:22.604Z,3.64
2018-02-23T09:42:22.613Z,3.92
2018-02-23T09:43:22.611Z,4.15
2018-02-23T09:44:22.619Z,4.57
2018-02-23T09:45:22.616Z,5.04
2018-02-23T09:46:22.653Z,5.02
2018-02-23T09:47:22.626Z,4.96
2018-02-23T09:48:22.634Z,4.96
2018-02-23T09:49:22.630Z,4.92
2018-02-23T09:50:22.635Z,4.75
2018-02-23T09:51:22.637Z,5.17
2018-02-23T09:52:22.641Z,5.82
2018-02-23T09:53:22.645Z,6.28
2018-02-23T09:54:22.650Z,6.36
2018-02-23T09:55:22.656Z,6.38
2018-02-23T09:56:23.616Z,6.33
2018-02-23T09:57:22.670Z,6.25
2018-02-23T09:58:22.665Z,6.56
2018-02-23T09:59:22.675Z,6.61
2018-02-23T10:00:22.678Z,6.69
2018-02-23T10:01:22.691Z,6.25
2018-02-23T10:02:22.685Z,6.35
2018-02-23T10:03:22.693Z,6.36
2018-02-23T10:04:22.703Z,6.32
2018-02-23T10:05:22.711Z,6.25
2018-02-23T10:06:22.712Z,6.41
2018-02-23T10:07:22.719Z,6.18
2018-02-23T10:08:22.724Z,5.68
2018-02-23T10:09:22.729Z,5.32
2018-02-23T10:10:22.739Z,4.73
2018-02-23T10:11:22.746Z,5.28
2018-02-23T10:12:22.747Z,5.68
2018-02-23T10:13:22.757Z,5.92
2018-02-23T10:14:22.768Z,6.21
2018-02-23T10:15:22.769Z,5.31
2018-02-23T10:16:22.771Z,5.02
2018-02-23T10:17:22.778Z,4.73
2018-02-23T10:18:22.788Z,4.65
2018-02-23T10:19:22.796Z,4.96
2018-02-23T10:20:22.796Z,5.25
2018-02-23T10:21:22.801Z,5.38
2018-02-23T10:22:22.812Z,5.19
2018-02-23T10:23:22.818Z,5.34
2018-02-23T10:24:22.822Z,5.55
2018-02-23T10:25:22.836Z,5.53
2018-02-23T10:26:22.830Z,5.74
2018-02-23T10:27:22.865Z,5.82
2018-02-23T10:28:22.852Z,5.37
2018-02-23T10:29:22.855Z,5.31
2018-02-23T10:30:22.857Z,5.02
2018-02-23T10:31:22.862Z,5.22
2018-02-23T10:32:22.864Z,4.98
2018-02-23T10:33:22.875Z,5.16
2018-02-23T10:34:22.880Z,5.17
2018-02-23T10:35:22.889Z,5.22
2018-02-23T10:36:22.894Z,5.05
2018-02-23T10:37:22.900Z,5.17
2018-02-23T10:38:22.905Z,5.32
2018-02-23T10:39:22.912Z,5.07
2018-02-23T10:40:22.915Z,5.12
2018-02-23T10:41:22.917Z,5.14
2018-02-23T10:42:22.925Z,5.35
2018-02-23T10:43:22.935Z,5.53
2018-02-23T10:44:22.937Z,5.91
2018-02-23T10:45:22.941Z,5.98
2018-02-23T10:46:22.948Z,5.86
2018-02-23T10:47:22.950Z,5.98
2018-02-23T10:48:22.959Z,6.13
2018-02-23T10:49:22.964Z,6.06
2018-02-23T10:50:22.968Z,5.93
2018-02-23T10:51:22.975Z,5.74
2018-02-23T10:52:22.973Z,5.85
2018-02-23T10:53:22.988Z,5.89
2018-02-23T10:54:22.989Z,6.09
2018-02-23T10:55:23.002Z,5.88
2018-02-23T10:56:23.000Z,5.75
2018-02-23T10:57:23.015Z,5.81
2018-02-23T10:58:23.014Z,5.60
2018-02-23T10:59:23.016Z,5.52
2018-02-23T11:00:23.028Z,5.77
2018-02-23T11:01:23.040Z,5.95
2018-02-23T11:02:23.049Z,6.04
2018-02-23T11:03:23.041Z,6.03
2018-02-23T11:04:23.057Z,5.81
2018-02-23T11:05:23.055Z,5.89
2018-02-23T11:06:23.063Z,5.92
2018-02-23T11:07:23.067Z,5.81
2018-02-23T11:08:23.077Z,5.88
2018-02-23T11:09:23.078Z,5.98
2018-02-23T11:10:23.089Z,6.14
2018-02-23T11:11:23.094Z,5.91
2018-02-23T11:12:23.100Z,6.00
2018-02-23T11:13:23.102Z,5.85
2018-02-23T11:14:23.114Z,5.85
2018-02-23T11:15:23.121Z,5.71
2018-02-23T11:16:23.122Z,5.71
2018-02-23T11:17:23.129Z,5.56
2018-02-23T11:18:23.138Z,5.64
2018-02-23T11:19:23.145Z,5.68
2018-02-23T11:20:23.147Z,5.75
2018-02-23T11:21:23.155Z,5.55
2018-02-23T11:22:23.158Z,5.48
2018-02-23T11:23:23.163Z,5.52
2018-02-23T11:24:23.174Z,5.49
2018-02-23T11:25:23.182Z,5.73
2018-02-23T11:26:23.180Z,5.83
2018-02-23T11:27:23.188Z,5.83
2018-02-23T11:28:23.196Z,5.63
2018-02-23T11:29:23.201Z,5.66
2018-02-23T11:30:23.243Z,5.53
2018-02-23T11:31:23.209Z,5.31
2018-02-23T11:32:23.219Z,5.27
2018-02-23T11:33:23.220Z,5.25
2018-02-23T11:34:23.223Z,5.46
2018-02-23T11:35:23.231Z,5.32
2018-02-23T11:36:23.240Z,5.35
2018-02-23T11:37:23.241Z,5.38
2018-02-23T11:38:23.247Z,5.38
2018-02-23T11:39:23.254Z,5.45
2018-02-23T11:40:23.257Z,5.53
2018-02-23T11:41:23.270Z,5.56
2018-02-23T11:42:23.272Z,5.45
2018-02-23T11:43:23.272Z,5.56
2018-02-23T11:44:23.274Z,5.49
2018-02-23T11:45:23.281Z,5.35
2018-02-23T11:46:23.289Z,5.49
2018-02-23T11:47:23.294Z,5.63
2018-02-23T11:48:23.292Z,5.52
2018-02-23T11:49:23.300Z,5.23
2018-02-23T11:50:23.354Z,5.07
2018-02-23T11:51:23.311Z,4.96
2018-02-23T11:52:23.318Z,4.94
2018-02-23T11:53:23.319Z,4.95
2018-02-23T11:54:23.323Z,5.01
2018-02-23T11:55:23.326Z,4.92
2018-02-23T11:56:23.341Z,4.84
2018-02-23T11:57:23.335Z,4.96
2018-02-23T11:58:23.345Z,5.10
2018-02-23T11:59:23.352Z,5.17
2018-02-23T12:00:23.353Z,4.99
2018-02-23T12:01:23.358Z,4.89
2018-02-23T12:02:23.361Z,4.77
2018-02-23T12:03:23.364Z,4.69
2018-02-23T12:04:23.369Z,4.65
2018-02-23T12:05:23.372Z,4.62
2018-02-23T12:06:23.378Z,4.54
2018-02-23T12:07:23.383Z,4.46
2018-02-23T12:08:23.386Z,4.54
2018-02-23T12:09:23.390Z,4.58
2018-02-23T12:10:23.389Z,4.69
2018-02-23T12:11:23.395Z,4.62
2018-02-23T12:12:23.395Z,4.61
2018-02-23T12:13:23.397Z,4.61
2018-02-23T12:14:23.403Z,4.70
2018-02-23T12:15:23.409Z,4.72
2018-02-23T12:16:23.413Z,4.59
2018-02-23T12:17:23.426Z,4.37
2018-02-23T12:18:23.420Z,4.39
2018-02-23T12:19:23.428Z,4.21
2018-02-23T12:20:23.424Z,4.25
2018-02-23T12:21:23.495Z,4.24
2018-02-23T12:22:23.430Z,4.22
2018-02-23T12:23:23.439Z,4.39
2018-02-23T12:24:23.439Z,4.33
2018-02-23T12:25:23.447Z,4.39
2018-02-23T12:26:23.448Z,4.57
2018-02-23T12:27:23.453Z,4.55
2018-02-23T12:28:23.480Z,4.72
2018-02-23T12:29:23.456Z,4.73
2018-02-23T12:30:23.456Z,4.72
2018-02-23T12:31:23.462Z,4.69
2018-02-23T12:32:23.467Z,4.86
2018-02-23T12:33:23.463Z,4.91
2018-02-23T12:34:23.466Z,4.95
2018-02-23T12:35:23.512Z,4.95
2018-02-23T12:36:23.474Z,4.75
2018-02-23T12:37:23.475Z,4.73
2018-02-23T12:38:23.475Z,4.72
2018-02-23T12:39:23.475Z,4.51
2018-02-23T12:40:23.483Z,4.50
2018-02-23T12:41:23.480Z,4.39
2018-02-23T12:42:23.486Z,4.46
2018-02-23T12:43:23.490Z,4.51
2018-02-23T12:44:23.494Z,4.62
2018-02-23T12:45:23.499Z,4.44
2018-02-23T12:46:23.501Z,4.36
2018-02-23T12:47:23.499Z,4.21
2018-02-23T12:48:23.506Z,4.32
2018-02-23T12:49:23.502Z,4.14
2018-02-23T12:50:23.505Z,4.15
2018-02-23T12:51:23.521Z,4.21
2018-02-23T12:52:23.516Z,4.26
2018-02-23T12:53:23.513Z,4.37
2018-02-23T12:54:23.516Z,4.44
2018-02-23T12:55:23.520Z,4.32
2018-02-23T12:56:23.520Z,4.18
2018-02-23T12:57:23.524Z,4.12
2018-02-23T12:58:23.526Z,4.14
2018-02-23T12:59:23.523Z,4.18
2018-02-23T13:00:23.532Z,4.15
2018-02-23T13:01:23.530Z,4.24
2018-02-23T13:02:23.536Z,4.36
2018-02-23T13:03:23.530Z,4.36
2018-02-23T13:04:23.537Z,4.39
2018-02-23T13:05:23.538Z,4.32
2018-02-23T13:06:23.541Z,4.22
2018-02-23T13:07:23.540Z,4.21
2018-02-23T13:08:23.545Z,4.33
2018-02-23T13:09:23.543Z,4.25
2018-02-23T13:10:23.551Z,4.18
2018-02-23T13:11:23.547Z,4.26
2018-02-23T13:12:23.552Z,4.32
2018-02-23T13:13:23.553Z,4.34
2018-02-23T13:14:23.560Z,4.37
2018-02-23T13:15:23.559Z,4.37
2018-02-23T13:16:23.560Z,4.16
2018-02-23T13:17:23.560Z,4.08
2018-02-23T13:18:23.569Z,4.16